sensor_id;sensor_type;location;lat;lon;timestamp;pressure;altitude;pressure_sealevel;temperature;humidity
44001;BME280;29660;42.892;24.710;2022-12-26T00:02:04;97709.06;;;-0.87;100.00
44001;BME280;29660;42.892;24.710;2022-12-26T00:07:06;97983.03;;;0.79;100.00
44001;BME280;29660;42.892;24.710;2022-12-26T00:12:08;97715.69;;;-0.98;100.00
44001;BME280;29660;42.892;24.710;2022-12-26T00:17:10;97724.16;;;-0.96;100.00
44001;BME280;29660;42.892;24.710;2022-12-26T00:22:12;98002.22;;;0.80;100.00
44001;BME280;29660;42.892;24.710;2022-12-26T00:27:16;97674.28;;;-1.23;100.00
44001;BME280;29660;42.892;24.710;2022-12-26T00:32:18;97519.75;;;-2.17;100.00
44001;BME280;29660;42.892;24.710;2022-12-26T00:37:20;97595.84;;;-1.64;100.00
44001;BME280;29660;42.892;24.710;2022-12-26T00:42:22;97705.22;;;-0.98;100.00
44001;BME280;29660;42.892;24.710;2022-12-26T00:47:24;97748.81;;;-0.77;100.00
44001;BME280;29660;42.892;24.710;2022-12-26T00:52:26;97885.56;;;0.01;100.00
44001;BME280;29660;42.892;24.710;2022-12-26T00:57:28;97661.72;;;-1.47;100.00
44001;BME280;29660;42.892;24.710;2022-12-26T01:02:29;98014.31;;;0.67;100.00
44001;BME280;29660;42.892;24.710;2022-12-26T01:07:41;97710.44;;;-1.39;100.00
44001;BME280;29660;42.892;24.710;2022-12-26T01:13:03;97663.63;;;-1.62;100.00
44001;BME280;29660;42.892;24.710;2022-12-26T01:18:05;97990.22;;;0.51;100.00
44001;BME280;29660;42.892;24.710;2022-12-26T01:23:07;97737.94;;;-1.15;100.00
44001;BME280;29660;42.892;24.710;2022-12-26T01:28:09;97910.13;;;-0.07;100.00
44001;BME280;29660;42.892;24.710;2022-12-26T01:33:12;97834.69;;;-0.59;100.00
44001;BME280;29660;42.892;24.710;2022-12-26T01:38:14;97751.19;;;-1.24;100.00
44001;BME280;29660;42.892;24.710;2022-12-26T01:43:16;97687.41;;;-1.57;100.00
44001;BME280;29660;42.892;24.710;2022-12-26T01:48:21;97756.59;;;-1.32;100.00
44001;BME280;29660;42.892;24.710;2022-12-26T01:53:38;98044.81;;;0.27;100.00
44001;BME280;29660;42.892;24.710;2022-12-26T01:58:47;97774.69;;;-1.30;100.00
44001;BME280;29660;42.892;24.710;2022-12-26T02:03:51;97774.09;;;-1.32;100.00
44001;BME280;29660;42.892;24.710;2022-12-26T02:09:12;97713.84;;;-1.74;100.00
44001;BME280;29660;42.892;24.710;2022-12-26T02:14:14;98039.41;;;0.29;100.00
44001;BME280;29660;42.892;24.710;2022-12-26T02:30:43;98005.47;;;0.20;100.00
44001;BME280;29660;42.892;24.710;2022-12-26T02:46:45;97928.06;;;-0.10;100.00
44001;BME280;29660;42.892;24.710;2022-12-26T02:52:14;97782.28;;;-1.07;100.00
44001;BME280;29660;42.892;24.710;2022-12-26T02:57:50;97621.47;;;-2.15;100.00
44001;BME280;29660;42.892;24.710;2022-12-26T03:03:19;97888.84;;;-0.32;100.00
44001;BME280;29660;42.892;24.710;2022-12-26T03:08:51;97925.59;;;-0.18;100.00
44001;BME280;29660;42.892;24.710;2022-12-26T03:14:22;97685.09;;;-1.74;100.00
44001;BME280;29660;42.892;24.710;2022-12-26T03:19:26;97950.44;;;-0.14;100.00
44001;BME280;29660;42.892;24.710;2022-12-26T03:24:30;97888.53;;;-0.57;100.00
44001;BME280;29660;42.892;24.710;2022-12-26T03:29:52;97974.44;;;-0.11;100.00
44001;BME280;29660;42.892;24.710;2022-12-26T03:35:13;97979.94;;;0.01;100.00
44001;BME280;29660;42.892;24.710;2022-12-26T03:40:32;97908.41;;;-0.28;100.00
44001;BME280;29660;42.892;24.710;2022-12-26T03:51:30;97905.03;;;-0.21;100.00
44001;BME280;29660;42.892;24.710;2022-12-26T03:56:54;97661.09;;;-1.84;100.00
44001;BME280;29660;42.892;24.710;2022-12-26T04:02:20;97820.94;;;-1.09;100.00
44001;BME280;29660;42.892;24.710;2022-12-26T04:07:45;97696.75;;;-1.76;100.00
44001;BME280;29660;42.892;24.710;2022-12-26T04:13:19;97668.47;;;-1.94;100.00
44001;BME280;29660;42.892;24.710;2022-12-26T04:18:46;97626.13;;;-2.39;100.00
44001;BME280;29660;42.892;24.710;2022-12-26T04:24:19;97903.22;;;-0.56;100.00
44001;BME280;29660;42.892;24.710;2022-12-26T04:29:45;97988.69;;;-0.27;100.00
44001;BME280;29660;42.892;24.710;2022-12-26T04:35:17;97924.47;;;-0.44;100.00
44001;BME280;29660;42.892;24.710;2022-12-26T04:40:44;97907.59;;;-0.69;100.00
44001;BME280;29660;42.892;24.710;2022-12-26T04:46:07;97675.44;;;-2.01;100.00
44001;BME280;29660;42.892;24.710;2022-12-26T04:51:09;97963.50;;;-0.21;100.00
44001;BME280;29660;42.892;24.710;2022-12-26T04:56:11;97677.63;;;-2.05;100.00
44001;BME280;29660;42.892;24.710;2022-12-26T05:01:14;97972.16;;;-0.27;100.00
44001;BME280;29660;42.892;24.710;2022-12-26T05:06:35;97731.50;;;-1.82;100.00
44001;BME280;29660;42.892;24.710;2022-12-26T05:11:55;97686.66;;;-2.07;100.00
44001;BME280;29660;42.892;24.710;2022-12-26T05:16:58;97909.16;;;-0.75;100.00
44001;BME280;29660;42.892;24.710;2022-12-26T05:22:19;97905.28;;;-0.86;100.00
44001;BME280;29660;42.892;24.710;2022-12-26T05:27:41;97688.19;;;-2.19;100.00
44001;BME280;29660;42.892;24.710;2022-12-26T05:33:02;97755.31;;;-1.70;100.00
44001;BME280;29660;42.892;24.710;2022-12-26T05:38:23;97790.78;;;-1.61;100.00
44001;BME280;29660;42.892;24.710;2022-12-26T05:43:25;97890.56;;;-0.87;100.00
44001;BME280;29660;42.892;24.710;2022-12-26T05:48:27;97741.56;;;-1.79;100.00
44001;BME280;29660;42.892;24.710;2022-12-26T05:53:30;97908.56;;;-0.77;100.00
44001;BME280;29660;42.892;24.710;2022-12-26T05:58:32;97931.63;;;-0.59;100.00
44001;BME280;29660;42.892;24.710;2022-12-26T06:03:34;97948.13;;;-0.65;100.00
44001;BME280;29660;42.892;24.710;2022-12-26T06:08:37;97926.69;;;-0.76;100.00
44001;BME280;29660;42.892;24.710;2022-12-26T06:13:41;97644.47;;;-2.54;100.00
44001;BME280;29660;42.892;24.710;2022-12-26T06:18:43;97943.31;;;-0.62;100.00
44001;BME280;29660;42.892;24.710;2022-12-26T06:23:46;97711.00;;;-2.07;100.00
44001;BME280;29660;42.892;24.710;2022-12-26T06:28:48;97490.72;;;-3.41;100.00
44001;BME280;29660;42.892;24.710;2022-12-26T06:33:53;97715.72;;;-1.95;100.00
44001;BME280;29660;42.892;24.710;2022-12-26T06:38:56;97953.06;;;-0.49;100.00
44001;BME280;29660;42.892;24.710;2022-12-26T06:43:58;97997.69;;;-0.01;100.00
44001;BME280;29660;42.892;24.710;2022-12-26T06:49:00;97818.72;;;-1.12;100.00
44001;BME280;29660;42.892;24.710;2022-12-26T06:54:03;97972.00;;;-0.12;100.00
44001;BME280;29660;42.892;24.710;2022-12-26T06:59:05;97699.25;;;-1.61;100.00
44001;BME280;29660;42.892;24.710;2022-12-26T07:04:08;97984.50;;;0.34;100.00
44001;BME280;29660;42.892;24.710;2022-12-26T07:09:14;97957.81;;;0.23;100.00
44001;BME280;29660;42.892;24.710;2022-12-26T07:14:17;97715.88;;;-1.00;100.00
44001;BME280;29660;42.892;24.710;2022-12-26T07:19:19;97510.09;;;-2.16;100.00
44001;BME280;29660;42.892;24.710;2022-12-26T07:24:21;97952.31;;;0.80;100.00
44001;BME280;29660;42.892;24.710;2022-12-26T07:29:23;97994.56;;;1.25;100.00
44001;BME280;29660;42.892;24.710;2022-12-26T07:34:25;97954.34;;;1.17;100.00
44001;BME280;29660;42.892;24.710;2022-12-26T07:39:33;97748.59;;;0.06;100.00
44001;BME280;29660;42.892;24.710;2022-12-26T07:44:38;98026.44;;;1.88;100.00
44001;BME280;29660;42.892;24.710;2022-12-26T07:49:42;97731.22;;;0.31;100.00
44001;BME280;29660;42.892;24.710;2022-12-26T07:54:44;97942.66;;;1.98;100.00
44001;BME280;29660;42.892;24.710;2022-12-26T07:59:46;97949.19;;;2.34;100.00
44001;BME280;29660;42.892;24.710;2022-12-26T08:04:50;97991.06;;;2.80;100.00
44001;BME280;29660;42.892;24.710;2022-12-26T08:09:52;97698.41;;;1.38;100.00
44001;BME280;29660;42.892;24.710;2022-12-26T08:14:54;97730.84;;;1.89;100.00
44001;BME280;29660;42.892;24.710;2022-12-26T08:19:56;97759.50;;;2.54;100.00
44001;BME280;29660;42.892;24.710;2022-12-26T08:24:58;97759.03;;;3.00;100.00
44001;BME280;29660;42.892;24.710;2022-12-26T08:30:00;97951.84;;;4.51;99.58
44001;BME280;29660;42.892;24.710;2022-12-26T08:35:02;97706.84;;;3.27;98.42
44001;BME280;29660;42.892;24.710;2022-12-26T08:40:04;97755.00;;;3.94;96.47
44001;BME280;29660;42.892;24.710;2022-12-26T08:45:06;97899.91;;;5.22;97.57
44001;BME280;29660;42.892;24.710;2022-12-26T08:50:09;97698.84;;;4.29;97.64
44001;BME280;29660;42.892;24.710;2022-12-26T08:55:11;97677.22;;;4.56;97.20
44001;BME280;29660;42.892;24.710;2022-12-26T09:00:13;97688.47;;;4.86;95.32
44001;BME280;29660;42.892;24.710;2022-12-26T09:05:15;97928.94;;;6.73;94.26
44001;BME280;29660;42.892;24.710;2022-12-26T09:10:17;97908.88;;;6.77;94.14
44001;BME280;29660;42.892;24.710;2022-12-26T09:15:19;97881.78;;;6.92;91.36
44001;BME280;29660;42.892;24.710;2022-12-26T09:20:21;97876.31;;;7.15;89.88
44001;BME280;29660;42.892;24.710;2022-12-26T09:25:24;97830.50;;;7.20;91.20
44001;BME280;29660;42.892;24.710;2022-12-26T09:30:26;97893.25;;;7.70;88.26
44001;BME280;29660;42.892;24.710;2022-12-26T09:35:28;97651.47;;;6.56;83.92
44001;BME280;29660;42.892;24.710;2022-12-26T09:40:42;97650.72;;;6.83;79.98
44001;BME280;29660;42.892;24.710;2022-12-26T09:45:56;97883.69;;;8.62;83.66
44001;BME280;29660;42.892;24.710;2022-12-26T09:51:07;97799.91;;;8.32;82.99
44001;BME280;29660;42.892;24.710;2022-12-26T09:56:13;97759.06;;;8.38;81.26
44001;BME280;29660;42.892;24.710;2022-12-26T10:01:36;97608.09;;;7.66;81.21
44001;BME280;29660;42.892;24.710;2022-12-26T10:06:40;97769.53;;;8.87;79.01
44001;BME280;29660;42.892;24.710;2022-12-26T10:17:09;97851.50;;;9.85;72.68
44001;BME280;29660;42.892;24.710;2022-12-26T10:27:31;97590.75;;;8.75;65.79
44001;BME280;29660;42.892;24.710;2022-12-26T10:32:47;97804.75;;;10.40;67.21
44001;BME280;29660;42.892;24.710;2022-12-26T10:37:51;97365.00;;;7.85;64.92
44001;BME280;29660;42.892;24.710;2022-12-26T10:42:59;97530.72;;;9.09;68.51
44001;BME280;29660;42.892;24.710;2022-12-26T10:48:03;97756.47;;;10.77;69.24
44001;BME280;29660;42.892;24.710;2022-12-26T10:53:08;97742.84;;;10.79;70.45
44001;BME280;29660;42.892;24.710;2022-12-26T10:58:20;97620.75;;;10.20;66.87
44001;BME280;29660;42.892;24.710;2022-12-26T11:03:23;97786.16;;;11.51;63.25
44001;BME280;29660;42.892;24.710;2022-12-26T11:13:46;97723.38;;;11.53;58.91
44001;BME280;29660;42.892;24.710;2022-12-26T11:18:50;97776.63;;;11.99;57.67
44001;BME280;29660;42.892;24.710;2022-12-26T11:24:15;97611.69;;;11.11;58.28
44001;BME280;29660;42.892;24.710;2022-12-26T11:29:20;97686.66;;;11.74;59.24
44001;BME280;29660;42.892;24.710;2022-12-26T11:34:29;97599.06;;;11.27;59.04
44001;BME280;29660;42.892;24.710;2022-12-26T11:39:36;97758.94;;;12.43;57.46
44001;BME280;29660;42.892;24.710;2022-12-26T11:44:42;97574.44;;;11.35;55.37
44001;BME280;29660;42.892;24.710;2022-12-26T11:50:04;97568.50;;;11.48;53.88
44001;BME280;29660;42.892;24.710;2022-12-26T12:00:28;97531.13;;;11.43;51.11
44001;BME280;29660;42.892;24.710;2022-12-26T12:11:02;97773.28;;;12.86;50.58
44001;BME280;29660;42.892;24.710;2022-12-26T12:21:43;97767.19;;;13.10;50.89
44001;BME280;29660;42.892;24.710;2022-12-26T12:27:07;97717.09;;;12.86;51.40
44001;BME280;29660;42.892;24.710;2022-12-26T12:43:42;97718.03;;;12.95;50.46
44001;BME280;29660;42.892;24.710;2022-12-26T13:04:32;97544.22;;;11.79;52.23
44001;BME280;29660;42.892;24.710;2022-12-26T13:09:48;97753.50;;;13.11;51.25
44001;BME280;29660;42.892;24.710;2022-12-26T13:15:01;97762.63;;;13.10;51.90
44001;BME280;29660;42.892;24.710;2022-12-26T13:25:39;97577.59;;;11.82;52.25
44001;BME280;29660;42.892;24.710;2022-12-26T13:30:42;97501.34;;;11.26;52.48
44001;BME280;29660;42.892;24.710;2022-12-26T13:35:59;97708.81;;;12.53;52.65
44001;BME280;29660;42.892;24.710;2022-12-26T13:41:02;97574.91;;;11.47;52.89
44001;BME280;29660;42.892;24.710;2022-12-26T13:51:50;97547.72;;;11.01;53.79
44001;BME280;29660;42.892;24.710;2022-12-26T13:57:13;97542.66;;;10.94;54.03
44001;BME280;29660;42.892;24.710;2022-12-26T14:13:55;97809.44;;;12.10;55.94
44001;BME280;29660;42.892;24.710;2022-12-26T14:19:11;97821.28;;;11.94;56.99
44001;BME280;29660;42.892;24.710;2022-12-26T14:24:46;97568.00;;;10.22;57.80
44001;BME280;29660;42.892;24.710;2022-12-26T14:35:35;97844.72;;;11.37;59.49
44001;BME280;29660;42.892;24.710;2022-12-26T14:41:03;97816.75;;;10.99;63.13
44001;BME280;29660;42.892;24.710;2022-12-26T14:51:35;97536.19;;;8.62;67.33
44001;BME280;29660;42.892;24.710;2022-12-26T14:56:38;97572.59;;;8.62;68.82
44001;BME280;29660;42.892;24.710;2022-12-26T15:01:42;97839.53;;;9.98;71.17
44001;BME280;29660;42.892;24.710;2022-12-26T15:07:10;97839.16;;;9.64;73.91
44001;BME280;29660;42.892;24.710;2022-12-26T15:29:38;97828.25;;;8.48;80.66
44001;BME280;29660;42.892;24.710;2022-12-26T15:40:34;97843.22;;;8.05;82.23
44001;BME280;29660;42.892;24.710;2022-12-26T15:51:00;97793.66;;;7.45;84.15
44001;BME280;29660;42.892;24.710;2022-12-26T16:01:50;97568.31;;;5.51;85.99
44001;BME280;29660;42.892;24.710;2022-12-26T16:07:25;97837.97;;;7.06;87.88
44001;BME280;29660;42.892;24.710;2022-12-26T16:12:32;97562.63;;;5.14;88.03
44001;BME280;29660;42.892;24.710;2022-12-26T16:17:36;97838.50;;;6.69;89.42
44001;BME280;29660;42.892;24.710;2022-12-26T16:22:40;97535.63;;;4.55;89.29
44001;BME280;29660;42.892;24.710;2022-12-26T16:27:52;97557.22;;;4.52;90.63
44001;BME280;29660;42.892;24.710;2022-12-26T16:32:56;97814.78;;;6.00;91.16
44001;BME280;29660;42.892;24.710;2022-12-26T16:38:00;97776.47;;;5.62;91.55
44001;BME280;29660;42.892;24.710;2022-12-26T16:43:08;97555.50;;;4.05;91.90
44001;BME280;29660;42.892;24.710;2022-12-26T16:48:23;97774.47;;;5.29;91.76
44001;BME280;29660;42.892;24.710;2022-12-26T16:58:38;97618.69;;;4.12;94.28
44001;BME280;29660;42.892;24.710;2022-12-26T17:08:49;97583.34;;;3.54;94.81
44001;BME280;29660;42.892;24.710;2022-12-26T17:13:52;97792.56;;;4.74;96.45
44001;BME280;29660;42.892;24.710;2022-12-26T17:19:08;97702.25;;;4.06;96.88
44001;BME280;29660;42.892;24.710;2022-12-26T17:34:51;97723.44;;;3.88;96.00
44001;BME280;29660;42.892;24.710;2022-12-26T17:40:05;97599.78;;;2.96;98.19
44001;BME280;29660;42.892;24.710;2022-12-26T17:45:14;97833.97;;;4.38;98.17
44001;BME280;29660;42.892;24.710;2022-12-26T17:50:16;97599.06;;;2.89;98.29
44001;BME280;29660;42.892;24.710;2022-12-26T17:55:25;97825.00;;;4.27;99.29
44001;BME280;29660;42.892;24.710;2022-12-26T18:00:28;97821.75;;;4.13;99.64
44001;BME280;29660;42.892;24.710;2022-12-26T18:05:30;97735.72;;;3.52;100.00
44001;BME280;29660;42.892;24.710;2022-12-26T18:10:35;97594.56;;;2.59;100.00
44001;BME280;29660;42.892;24.710;2022-12-26T18:15:37;97744.06;;;3.49;100.00
44001;BME280;29660;42.892;24.710;2022-12-26T18:20:39;97802.31;;;3.48;100.00
44001;BME280;29660;42.892;24.710;2022-12-26T18:25:41;97490.59;;;1.77;100.00
44001;BME280;29660;42.892;24.710;2022-12-26T18:30:44;97795.97;;;3.67;100.00
44001;BME280;29660;42.892;24.710;2022-12-26T18:36:05;97777.03;;;3.58;100.00
44001;BME280;29660;42.892;24.710;2022-12-26T18:41:27;97729.16;;;3.25;100.00
44001;BME280;29660;42.892;24.710;2022-12-26T18:46:29;97708.69;;;3.08;100.00
44001;BME280;29660;42.892;24.710;2022-12-26T18:51:32;97512.91;;;1.74;100.00
44001;BME280;29660;42.892;24.710;2022-12-26T18:56:34;97493.25;;;1.58;100.00
44001;BME280;29660;42.892;24.710;2022-12-26T19:01:36;97515.88;;;1.59;100.00
44001;BME280;29660;42.892;24.710;2022-12-26T19:06:38;97777.19;;;3.27;100.00
44001;BME280;29660;42.892;24.710;2022-12-26T19:11:41;97736.34;;;2.99;100.00
44001;BME280;29660;42.892;24.710;2022-12-26T19:16:44;97766.97;;;3.18;100.00
44001;BME280;29660;42.892;24.710;2022-12-26T19:21:46;97465.16;;;1.09;100.00
44001;BME280;29660;42.892;24.710;2022-12-26T19:26:48;97554.28;;;1.60;100.00
44001;BME280;29660;42.892;24.710;2022-12-26T19:31:50;97476.09;;;1.06;100.00
44001;BME280;29660;42.892;24.710;2022-12-26T19:36:52;97756.63;;;2.80;100.00
44001;BME280;29660;42.892;24.710;2022-12-26T19:41:54;97549.94;;;1.47;100.00
44001;BME280;29660;42.892;24.710;2022-12-26T19:46:56;97533.31;;;1.29;100.00
44001;BME280;29660;42.892;24.710;2022-12-26T19:52:12;97515.94;;;1.03;100.00
44001;BME280;29660;42.892;24.710;2022-12-26T19:57:15;97702.72;;;2.14;100.00
44001;BME280;29660;42.892;24.710;2022-12-26T20:02:17;97642.78;;;1.73;100.00
44001;BME280;29660;42.892;24.710;2022-12-26T20:07:19;97502.06;;;0.89;100.00
44001;BME280;29660;42.892;24.710;2022-12-26T20:12:21;97574.75;;;1.27;100.00
44001;BME280;29660;42.892;24.710;2022-12-26T20:17:23;97507.59;;;0.74;100.00
44001;BME280;29660;42.892;24.710;2022-12-26T20:22:25;97718.19;;;2.04;100.00
44001;BME280;29660;42.892;24.710;2022-12-26T20:27:27;97512.31;;;0.65;100.00
44001;BME280;29660;42.892;24.710;2022-12-26T20:32:29;97557.59;;;0.92;100.00
44001;BME280;29660;42.892;24.710;2022-12-26T20:37:31;97513.78;;;0.55;100.00
44001;BME280;29660;42.892;24.710;2022-12-26T20:42:33;97481.34;;;0.42;100.00
44001;BME280;29660;42.892;24.710;2022-12-26T20:47:35;97559.66;;;0.84;100.00
44001;BME280;29660;42.892;24.710;2022-12-26T20:52:37;97492.88;;;0.35;100.00
44001;BME280;29660;42.892;24.710;2022-12-26T20:57:39;97771.13;;;2.14;100.00
44001;BME280;29660;42.892;24.710;2022-12-26T21:02:41;97484.00;;;0.36;100.00
44001;BME280;29660;42.892;24.710;2022-12-26T21:07:44;97776.25;;;2.09;100.00
44001;BME280;29660;42.892;24.710;2022-12-26T21:12:46;97765.13;;;2.07;100.00
44001;BME280;29660;42.892;24.710;2022-12-26T21:17:48;97744.38;;;1.92;100.00
44001;BME280;29660;42.892;24.710;2022-12-26T21:22:50;97478.41;;;0.19;100.00
44001;BME280;29660;42.892;24.710;2022-12-26T21:27:52;97743.25;;;1.82;100.00
44001;BME280;29660;42.892;24.710;2022-12-26T21:33:00;97465.16;;;0.07;100.00
44001;BME280;29660;42.892;24.710;2022-12-26T21:38:02;97682.13;;;1.55;100.00
44001;BME280;29660;42.892;24.710;2022-12-26T21:43:04;97514.22;;;0.52;100.00
44001;BME280;29660;42.892;24.710;2022-12-26T21:48:07;97767.84;;;1.94;100.00
44001;BME280;29660;42.892;24.710;2022-12-26T21:53:09;97727.25;;;1.83;100.00
44001;BME280;29660;42.892;24.710;2022-12-26T21:58:11;97446.16;;;0.18;100.00
44001;BME280;29660;42.892;24.710;2022-12-26T22:03:14;97636.53;;;1.36;100.00
44001;BME280;29660;42.892;24.710;2022-12-26T22:08:34;97300.97;;;-0.70;100.00
44001;BME280;29660;42.892;24.710;2022-12-26T22:13:40;97641.66;;;1.56;100.00
44001;BME280;29660;42.892;24.710;2022-12-26T22:18:44;97616.13;;;1.38;100.00
44001;BME280;29660;42.892;24.710;2022-12-26T22:23:48;97718.63;;;2.01;100.00
44001;BME280;29660;42.892;24.710;2022-12-26T22:28:54;97630.13;;;1.57;100.00
44001;BME280;29660;42.892;24.710;2022-12-26T22:34:01;97696.28;;;1.85;100.00
44001;BME280;29660;42.892;24.710;2022-12-26T22:39:04;97688.94;;;1.94;100.00
44001;BME280;29660;42.892;24.710;2022-12-26T22:44:06;97671.38;;;1.88;100.00
44001;BME280;29660;42.892;24.710;2022-12-26T22:49:09;97461.34;;;0.48;100.00
44001;BME280;29660;42.892;24.710;2022-12-26T22:54:11;97628.41;;;1.44;100.00
44001;BME280;29660;42.892;24.710;2022-12-26T22:59:13;97380.16;;;-0.17;100.00
44001;BME280;29660;42.892;24.710;2022-12-26T23:04:35;97674.31;;;1.73;100.00
44001;BME280;29660;42.892;24.710;2022-12-26T23:09:37;97406.88;;;0.05;100.00
44001;BME280;29660;42.892;24.710;2022-12-26T23:14:39;97375.69;;;-0.10;100.00
44001;BME280;29660;42.892;24.710;2022-12-26T23:19:50;97174.72;;;-1.31;100.00
44001;BME280;29660;42.892;24.710;2022-12-26T23:25:11;97403.78;;;0.15;100.00
44001;BME280;29660;42.892;24.710;2022-12-26T23:30:13;97385.31;;;0.03;100.00
44001;BME280;29660;42.892;24.710;2022-12-26T23:35:19;97388.13;;;0.08;100.00
44001;BME280;29660;42.892;24.710;2022-12-26T23:40:22;97589.66;;;1.33;100.00
44001;BME280;29660;42.892;24.710;2022-12-26T23:45:24;97416.97;;;0.08;100.00
44001;BME280;29660;42.892;24.710;2022-12-26T23:50:26;97646.81;;;1.69;100.00
44001;BME280;29660;42.892;24.710;2022-12-26T23:55:28;97380.13;;;-0.04;100.00
